sensor_id;sensor_type;location;lat;lon;timestamp;P1;durP1;ratioP1;P2;durP2;ratioP2
7929;SDS011;4010;42.698;23.124;2024-03-07T00:00:07;26.40;;;16.87;;
7929;SDS011;4010;42.698;23.124;2024-03-07T00:02:42;25.70;;;17.57;;
7929;SDS011;4010;42.698;23.124;2024-03-07T00:05:08;24.50;;;17.13;;
7929;SDS011;4010;42.698;23.124;2024-03-07T00:07:36;25.47;;;17.63;;
7929;SDS011;4010;42.698;23.124;2024-03-07T00:10:02;21.20;;;14.93;;
7929;SDS011;4010;42.698;23.124;2024-03-07T00:12:32;23.27;;;16.40;;
7929;SDS011;4010;42.698;23.124;2024-03-07T00:15:00;22.73;;;15.03;;
7929;SDS011;4010;42.698;23.124;2024-03-07T00:17:27;23.47;;;15.93;;
7929;SDS011;4010;42.698;23.124;2024-03-07T00:19:58;17.10;;;12.43;;
7929;SDS011;4010;42.698;23.124;2024-03-07T00:22:24;21.37;;;13.80;;
7929;SDS011;4010;42.698;23.124;2024-03-07T00:24:53;19.93;;;14.40;;
7929;SDS011;4010;42.698;23.124;2024-03-07T00:27:20;25.83;;;15.70;;
7929;SDS011;4010;42.698;23.124;2024-03-07T00:29:47;24.13;;;15.97;;
7929;SDS011;4010;42.698;23.124;2024-03-07T00:32:19;21.03;;;13.73;;
7929;SDS011;4010;42.698;23.124;2024-03-07T00:34:47;21.03;;;14.40;;
7929;SDS011;4010;42.698;23.124;2024-03-07T00:37:14;19.87;;;14.53;;
7929;SDS011;4010;42.698;23.124;2024-03-07T00:39:41;12.53;;;8.70;;
7929;SDS011;4010;42.698;23.124;2024-03-07T00:42:08;13.00;;;9.60;;
7929;SDS011;4010;42.698;23.124;2024-03-07T00:44:35;13.13;;;8.43;;
7929;SDS011;4010;42.698;23.124;2024-03-07T00:47:02;8.00;;;6.50;;
7929;SDS011;4010;42.698;23.124;2024-03-07T00:49:31;9.23;;;6.87;;
7929;SDS011;4010;42.698;23.124;2024-03-07T00:51:58;6.63;;;5.33;;
7929;SDS011;4010;42.698;23.124;2024-03-07T00:54:25;7.53;;;5.10;;
7929;SDS011;4010;42.698;23.124;2024-03-07T00:56:51;7.53;;;4.00;;
7929;SDS011;4010;42.698;23.124;2024-03-07T00:59:19;5.17;;;4.67;;
7929;SDS011;4010;42.698;23.124;2024-03-07T01:01:45;4.93;;;3.93;;
7929;SDS011;4010;42.698;23.124;2024-03-07T01:04:14;5.60;;;4.20;;
7929;SDS011;4010;42.698;23.124;2024-03-07T01:06:42;6.37;;;4.37;;
7929;SDS011;4010;42.698;23.124;2024-03-07T01:09:09;4.83;;;4.20;;
7929;SDS011;4010;42.698;23.124;2024-03-07T01:11:39;5.93;;;4.27;;
7929;SDS011;4010;42.698;23.124;2024-03-07T01:14:06;6.67;;;4.83;;
7929;SDS011;4010;42.698;23.124;2024-03-07T01:16:33;4.23;;;3.67;;
7929;SDS011;4010;42.698;23.124;2024-03-07T01:19:00;4.57;;;3.73;;
7929;SDS011;4010;42.698;23.124;2024-03-07T01:21:27;4.30;;;3.63;;
7929;SDS011;4010;42.698;23.124;2024-03-07T01:23:55;5.30;;;3.80;;
7929;SDS011;4010;42.698;23.124;2024-03-07T01:26:22;5.07;;;4.00;;
7929;SDS011;4010;42.698;23.124;2024-03-07T01:28:49;4.47;;;3.67;;
7929;SDS011;4010;42.698;23.124;2024-03-07T01:31:17;5.27;;;4.00;;
7929;SDS011;4010;42.698;23.124;2024-03-07T01:33:43;4.17;;;3.57;;
7929;SDS011;4010;42.698;23.124;2024-03-07T01:36:10;4.10;;;3.27;;
7929;SDS011;4010;42.698;23.124;2024-03-07T01:38:37;4.40;;;3.43;;
7929;SDS011;4010;42.698;23.124;2024-03-07T01:41:05;5.23;;;3.17;;
7929;SDS011;4010;42.698;23.124;2024-03-07T01:43:32;4.00;;;3.27;;
7929;SDS011;4010;42.698;23.124;2024-03-07T01:45:59;4.77;;;2.90;;
7929;SDS011;4010;42.698;23.124;2024-03-07T01:48:26;2.97;;;2.67;;
7929;SDS011;4010;42.698;23.124;2024-03-07T01:50:54;3.90;;;2.70;;
7929;SDS011;4010;42.698;23.124;2024-03-07T01:53:22;2.87;;;2.40;;
7929;SDS011;4010;42.698;23.124;2024-03-07T01:55:49;2.67;;;1.93;;
7929;SDS011;4010;42.698;23.124;2024-03-07T01:58:20;2.00;;;1.80;;
7929;SDS011;4010;42.698;23.124;2024-03-07T02:00:47;2.27;;;1.63;;
7929;SDS011;4010;42.698;23.124;2024-03-07T02:03:14;1.60;;;1.50;;
7929;SDS011;4010;42.698;23.124;2024-03-07T02:05:41;2.07;;;1.80;;
7929;SDS011;4010;42.698;23.124;2024-03-07T02:08:08;1.90;;;1.60;;
7929;SDS011;4010;42.698;23.124;2024-03-07T02:10:34;1.40;;;1.30;;
7929;SDS011;4010;42.698;23.124;2024-03-07T02:13:01;1.30;;;1.20;;
7929;SDS011;4010;42.698;23.124;2024-03-07T02:15:30;1.07;;;0.77;;
7929;SDS011;4010;42.698;23.124;2024-03-07T02:17:57;0.90;;;0.90;;
7929;SDS011;4010;42.698;23.124;2024-03-07T02:20:24;0.63;;;0.63;;
7929;SDS011;4010;42.698;23.124;2024-03-07T02:22:54;0.90;;;0.90;;
7929;SDS011;4010;42.698;23.124;2024-03-07T02:25:21;0.67;;;0.67;;
7929;SDS011;4010;42.698;23.124;2024-03-07T02:27:48;0.60;;;0.60;;
7929;SDS011;4010;42.698;23.124;2024-03-07T02:30:15;0.77;;;0.77;;
7929;SDS011;4010;42.698;23.124;2024-03-07T02:32:43;0.60;;;0.60;;
7929;SDS011;4010;42.698;23.124;2024-03-07T02:35:16;0.80;;;0.80;;
7929;SDS011;4010;42.698;23.124;2024-03-07T02:37:44;1.03;;;0.83;;
7929;SDS011;4010;42.698;23.124;2024-03-07T02:40:12;0.73;;;0.73;;
7929;SDS011;4010;42.698;23.124;2024-03-07T02:42:39;0.60;;;0.60;;
7929;SDS011;4010;42.698;23.124;2024-03-07T02:45:06;1.00;;;0.83;;
7929;SDS011;4010;42.698;23.124;2024-03-07T02:47:35;0.90;;;0.70;;
7929;SDS011;4010;42.698;23.124;2024-03-07T02:50:04;0.80;;;0.80;;
7929;SDS011;4010;42.698;23.124;2024-03-07T02:52:31;0.37;;;0.37;;
7929;SDS011;4010;42.698;23.124;2024-03-07T02:54:58;0.53;;;0.53;;
7929;SDS011;4010;42.698;23.124;2024-03-07T02:57:26;0.60;;;0.60;;
7929;SDS011;4010;42.698;23.124;2024-03-07T02:59:53;0.50;;;0.50;;
7929;SDS011;4010;42.698;23.124;2024-03-07T03:02:20;0.60;;;0.60;;
7929;SDS011;4010;42.698;23.124;2024-03-07T03:04:46;0.60;;;0.60;;
7929;SDS011;4010;42.698;23.124;2024-03-07T03:07:13;0.40;;;0.40;;
7929;SDS011;4010;42.698;23.124;2024-03-07T03:09:40;0.50;;;0.50;;
7929;SDS011;4010;42.698;23.124;2024-03-07T03:12:08;0.73;;;0.60;;
7929;SDS011;4010;42.698;23.124;2024-03-07T03:14:37;0.70;;;0.50;;
7929;SDS011;4010;42.698;23.124;2024-03-07T03:17:05;0.50;;;0.50;;
7929;SDS011;4010;42.698;23.124;2024-03-07T03:19:34;1.27;;;0.90;;
7929;SDS011;4010;42.698;23.124;2024-03-07T03:22:01;1.10;;;1.00;;
7929;SDS011;4010;42.698;23.124;2024-03-07T03:24:28;3.40;;;0.80;;
7929;SDS011;4010;42.698;23.124;2024-03-07T03:26:55;0.90;;;0.70;;
7929;SDS011;4010;42.698;23.124;2024-03-07T03:29:22;0.60;;;0.60;;
7929;SDS011;4010;42.698;23.124;2024-03-07T03:31:50;0.70;;;0.70;;
7929;SDS011;4010;42.698;23.124;2024-03-07T03:34:17;0.50;;;0.50;;
7929;SDS011;4010;42.698;23.124;2024-03-07T03:36:44;0.60;;;0.60;;
7929;SDS011;4010;42.698;23.124;2024-03-07T03:39:10;0.67;;;0.67;;
7929;SDS011;4010;42.698;23.124;2024-03-07T03:41:38;0.80;;;0.70;;
7929;SDS011;4010;42.698;23.124;2024-03-07T03:44:05;0.80;;;0.80;;
7929;SDS011;4010;42.698;23.124;2024-03-07T03:46:32;0.90;;;0.90;;
7929;SDS011;4010;42.698;23.124;2024-03-07T03:49:00;4.63;;;0.97;;
7929;SDS011;4010;42.698;23.124;2024-03-07T03:51:27;0.80;;;0.80;;
7929;SDS011;4010;42.698;23.124;2024-03-07T03:53:53;1.40;;;1.10;;
7929;SDS011;4010;42.698;23.124;2024-03-07T03:56:20;1.30;;;0.90;;
7929;SDS011;4010;42.698;23.124;2024-03-07T03:58:47;0.70;;;0.60;;
7929;SDS011;4010;42.698;23.124;2024-03-07T04:01:13;1.03;;;0.73;;
7929;SDS011;4010;42.698;23.124;2024-03-07T04:03:41;0.70;;;0.70;;
7929;SDS011;4010;42.698;23.124;2024-03-07T04:06:13;0.80;;;0.80;;
7929;SDS011;4010;42.698;23.124;2024-03-07T04:08:40;0.80;;;0.80;;
7929;SDS011;4010;42.698;23.124;2024-03-07T04:11:07;0.80;;;0.80;;
7929;SDS011;4010;42.698;23.124;2024-03-07T04:13:35;0.97;;;0.97;;
7929;SDS011;4010;42.698;23.124;2024-03-07T04:16:01;0.93;;;0.93;;
7929;SDS011;4010;42.698;23.124;2024-03-07T04:18:28;0.90;;;0.80;;
7929;SDS011;4010;42.698;23.124;2024-03-07T04:20:55;1.50;;;1.40;;
7929;SDS011;4010;42.698;23.124;2024-03-07T04:23:23;3.53;;;2.70;;
7929;SDS011;4010;42.698;23.124;2024-03-07T04:25:51;2.90;;;2.33;;
7929;SDS011;4010;42.698;23.124;2024-03-07T04:28:17;2.97;;;2.20;;
7929;SDS011;4010;42.698;23.124;2024-03-07T04:30:44;3.67;;;2.50;;
7929;SDS011;4010;42.698;23.124;2024-03-07T04:33:11;3.33;;;2.63;;
7929;SDS011;4010;42.698;23.124;2024-03-07T04:35:38;3.03;;;2.60;;
7929;SDS011;4010;42.698;23.124;2024-03-07T04:38:05;2.37;;;2.17;;
7929;SDS011;4010;42.698;23.124;2024-03-07T04:40:37;3.10;;;2.70;;
7929;SDS011;4010;42.698;23.124;2024-03-07T04:43:04;2.43;;;2.23;;
7929;SDS011;4010;42.698;23.124;2024-03-07T04:45:32;4.13;;;3.23;;
7929;SDS011;4010;42.698;23.124;2024-03-07T04:47:59;3.00;;;2.70;;
7929;SDS011;4010;42.698;23.124;2024-03-07T04:50:26;2.77;;;2.00;;
7929;SDS011;4010;42.698;23.124;2024-03-07T04:52:53;2.10;;;1.80;;
7929;SDS011;4010;42.698;23.124;2024-03-07T04:55:20;1.60;;;1.50;;
7929;SDS011;4010;42.698;23.124;2024-03-07T04:57:48;2.50;;;1.90;;
7929;SDS011;4010;42.698;23.124;2024-03-07T05:00:16;1.90;;;1.70;;
7929;SDS011;4010;42.698;23.124;2024-03-07T05:02:44;2.33;;;1.97;;
7929;SDS011;4010;42.698;23.124;2024-03-07T05:05:13;4.03;;;2.43;;
7929;SDS011;4010;42.698;23.124;2024-03-07T05:07:39;2.53;;;2.27;;
7929;SDS011;4010;42.698;23.124;2024-03-07T05:10:06;3.20;;;2.53;;
7929;SDS011;4010;42.698;23.124;2024-03-07T05:12:34;3.33;;;3.03;;
7929;SDS011;4010;42.698;23.124;2024-03-07T05:15:03;4.60;;;4.03;;
7929;SDS011;4010;42.698;23.124;2024-03-07T05:17:30;5.23;;;3.80;;
7929;SDS011;4010;42.698;23.124;2024-03-07T05:19:59;6.43;;;5.10;;
7929;SDS011;4010;42.698;23.124;2024-03-07T05:22:26;7.40;;;6.13;;
7929;SDS011;4010;42.698;23.124;2024-03-07T05:24:55;7.50;;;5.77;;
7929;SDS011;4010;42.698;23.124;2024-03-07T05:27:22;3.90;;;3.33;;
7929;SDS011;4010;42.698;23.124;2024-03-07T05:29:48;5.27;;;4.40;;
7929;SDS011;4010;42.698;23.124;2024-03-07T05:32:23;6.00;;;4.97;;
7929;SDS011;4010;42.698;23.124;2024-03-07T05:34:51;7.10;;;5.00;;
7929;SDS011;4010;42.698;23.124;2024-03-07T05:37:18;8.63;;;5.00;;
7929;SDS011;4010;42.698;23.124;2024-03-07T05:39:46;7.23;;;5.57;;
7929;SDS011;4010;42.698;23.124;2024-03-07T05:42:13;10.37;;;6.93;;
7929;SDS011;4010;42.698;23.124;2024-03-07T05:44:40;15.00;;;10.27;;
7929;SDS011;4010;42.698;23.124;2024-03-07T05:47:08;16.07;;;9.73;;
7929;SDS011;4010;42.698;23.124;2024-03-07T05:49:36;10.27;;;7.47;;
7929;SDS011;4010;42.698;23.124;2024-03-07T05:52:03;11.17;;;7.90;;
7929;SDS011;4010;42.698;23.124;2024-03-07T05:54:31;9.83;;;6.83;;
7929;SDS011;4010;42.698;23.124;2024-03-07T05:56:58;10.67;;;6.23;;
7929;SDS011;4010;42.698;23.124;2024-03-07T05:59:25;10.73;;;7.60;;
7929;SDS011;4010;42.698;23.124;2024-03-07T06:01:52;17.93;;;8.53;;
7929;SDS011;4010;42.698;23.124;2024-03-07T06:04:19;11.60;;;9.00;;
7929;SDS011;4010;42.698;23.124;2024-03-07T06:06:47;24.20;;;10.00;;
7929;SDS011;4010;42.698;23.124;2024-03-07T06:09:14;37.93;;;10.20;;
7929;SDS011;4010;42.698;23.124;2024-03-07T06:11:46;21.33;;;9.00;;
7929;SDS011;4010;42.698;23.124;2024-03-07T06:14:13;10.73;;;8.57;;
7929;SDS011;4010;42.698;23.124;2024-03-07T06:16:41;9.63;;;8.03;;
7929;SDS011;4010;42.698;23.124;2024-03-07T06:19:08;11.20;;;7.67;;
7929;SDS011;4010;42.698;23.124;2024-03-07T06:21:36;11.73;;;8.27;;
7929;SDS011;4010;42.698;23.124;2024-03-07T06:24:07;12.37;;;8.60;;
7929;SDS011;4010;42.698;23.124;2024-03-07T06:26:35;9.67;;;8.10;;
7929;SDS011;4010;42.698;23.124;2024-03-07T06:29:11;12.20;;;8.00;;
7929;SDS011;4010;42.698;23.124;2024-03-07T06:31:38;9.73;;;8.17;;
7929;SDS011;4010;42.698;23.124;2024-03-07T06:34:05;9.80;;;8.17;;
7929;SDS011;4010;42.698;23.124;2024-03-07T06:36:33;10.13;;;7.33;;
7929;SDS011;4010;42.698;23.124;2024-03-07T06:39:00;9.93;;;8.30;;
7929;SDS011;4010;42.698;23.124;2024-03-07T06:41:31;8.80;;;6.80;;
7929;SDS011;4010;42.698;23.124;2024-03-07T06:43:58;10.17;;;7.50;;
7929;SDS011;4010;42.698;23.124;2024-03-07T06:46:25;9.00;;;7.30;;
7929;SDS011;4010;42.698;23.124;2024-03-07T06:48:51;7.83;;;7.03;;
7929;SDS011;4010;42.698;23.124;2024-03-07T06:51:18;7.63;;;6.50;;
7929;SDS011;4010;42.698;23.124;2024-03-07T06:53:45;6.83;;;6.10;;
7929;SDS011;4010;42.698;23.124;2024-03-07T06:56:12;6.20;;;5.50;;
7929;SDS011;4010;42.698;23.124;2024-03-07T06:58:41;7.67;;;5.80;;
7929;SDS011;4010;42.698;23.124;2024-03-07T07:01:07;6.30;;;5.60;;
7929;SDS011;4010;42.698;23.124;2024-03-07T07:03:35;5.83;;;5.20;;
7929;SDS011;4010;42.698;23.124;2024-03-07T07:06:03;5.47;;;4.73;;
7929;SDS011;4010;42.698;23.124;2024-03-07T07:08:32;5.90;;;5.37;;
7929;SDS011;4010;42.698;23.124;2024-03-07T07:10:59;6.80;;;6.10;;
7929;SDS011;4010;42.698;23.124;2024-03-07T07:13:25;7.90;;;5.63;;
7929;SDS011;4010;42.698;23.124;2024-03-07T07:15:53;6.77;;;5.80;;
7929;SDS011;4010;42.698;23.124;2024-03-07T07:18:19;6.87;;;5.57;;
7929;SDS011;4010;42.698;23.124;2024-03-07T07:20:46;7.93;;;6.57;;
7929;SDS011;4010;42.698;23.124;2024-03-07T07:23:14;6.27;;;5.67;;
7929;SDS011;4010;42.698;23.124;2024-03-07T07:25:41;6.70;;;6.00;;
7929;SDS011;4010;42.698;23.124;2024-03-07T07:28:08;7.53;;;6.43;;
7929;SDS011;4010;42.698;23.124;2024-03-07T07:30:36;10.05;;;9.05;;
7929;SDS011;4010;42.698;23.124;2024-03-07T07:33:04;8.40;;;7.50;;
7929;SDS011;4010;42.698;23.124;2024-03-07T07:35:31;9.10;;;7.63;;
7929;SDS011;4010;42.698;23.124;2024-03-07T07:37:59;9.17;;;7.77;;
7929;SDS011;4010;42.698;23.124;2024-03-07T07:40:26;10.77;;;8.13;;
7929;SDS011;4010;42.698;23.124;2024-03-07T07:42:53;11.10;;;8.03;;
7929;SDS011;4010;42.698;23.124;2024-03-07T07:45:21;8.80;;;7.83;;
7929;SDS011;4010;42.698;23.124;2024-03-07T07:47:49;9.40;;;7.50;;
7929;SDS011;4010;42.698;23.124;2024-03-07T07:50:18;12.43;;;9.10;;
7929;SDS011;4010;42.698;23.124;2024-03-07T07:52:46;12.40;;;8.37;;
7929;SDS011;4010;42.698;23.124;2024-03-07T07:55:15;9.40;;;7.57;;
7929;SDS011;4010;42.698;23.124;2024-03-07T07:57:42;9.93;;;7.83;;
7929;SDS011;4010;42.698;23.124;2024-03-07T08:00:11;12.77;;;7.83;;
7929;SDS011;4010;42.698;23.124;2024-03-07T08:02:48;10.40;;;9.18;;
7929;SDS011;4010;42.698;23.124;2024-03-07T08:05:17;9.97;;;8.17;;
7929;SDS011;4010;42.698;23.124;2024-03-07T08:07:45;9.37;;;7.87;;
7929;SDS011;4010;42.698;23.124;2024-03-07T08:10:13;8.90;;;7.50;;
7929;SDS011;4010;42.698;23.124;2024-03-07T08:12:40;8.20;;;7.07;;
7929;SDS011;4010;42.698;23.124;2024-03-07T08:15:08;7.40;;;6.60;;
7929;SDS011;4010;42.698;23.124;2024-03-07T08:17:39;8.53;;;7.63;;
7929;SDS011;4010;42.698;23.124;2024-03-07T08:20:08;11.03;;;8.67;;
7929;SDS011;4010;42.698;23.124;2024-03-07T08:22:38;12.83;;;9.23;;
7929;SDS011;4010;42.698;23.124;2024-03-07T08:25:06;11.87;;;9.07;;
7929;SDS011;4010;42.698;23.124;2024-03-07T08:27:35;10.83;;;8.17;;
7929;SDS011;4010;42.698;23.124;2024-03-07T08:30:03;11.33;;;8.40;;
7929;SDS011;4010;42.698;23.124;2024-03-07T08:32:31;9.63;;;8.30;;
7929;SDS011;4010;42.698;23.124;2024-03-07T08:34:59;12.33;;;8.17;;
7929;SDS011;4010;42.698;23.124;2024-03-07T08:37:26;10.20;;;8.47;;
7929;SDS011;4010;42.698;23.124;2024-03-07T08:39:54;12.83;;;9.60;;
7929;SDS011;4010;42.698;23.124;2024-03-07T08:42:21;13.80;;;11.23;;
7929;SDS011;4010;42.698;23.124;2024-03-07T08:44:48;12.87;;;10.60;;
7929;SDS011;4010;42.698;23.124;2024-03-07T08:47:14;12.47;;;10.17;;
7929;SDS011;4010;42.698;23.124;2024-03-07T08:49:42;12.53;;;9.23;;
7929;SDS011;4010;42.698;23.124;2024-03-07T08:52:08;10.53;;;9.37;;
7929;SDS011;4010;42.698;23.124;2024-03-07T08:54:35;12.57;;;9.60;;
7929;SDS011;4010;42.698;23.124;2024-03-07T08:57:03;12.07;;;8.97;;
7929;SDS011;4010;42.698;23.124;2024-03-07T08:59:32;10.43;;;9.23;;
7929;SDS011;4010;42.698;23.124;2024-03-07T09:01:59;12.43;;;9.13;;
7929;SDS011;4010;42.698;23.124;2024-03-07T09:04:26;10.43;;;8.80;;
7929;SDS011;4010;42.698;23.124;2024-03-07T09:06:54;10.63;;;9.00;;
7929;SDS011;4010;42.698;23.124;2024-03-07T09:09:20;9.07;;;8.03;;
7929;SDS011;4010;42.698;23.124;2024-03-07T09:11:47;10.10;;;8.37;;
7929;SDS011;4010;42.698;23.124;2024-03-07T09:14:15;9.17;;;8.20;;
7929;SDS011;4010;42.698;23.124;2024-03-07T09:16:42;11.73;;;8.90;;
7929;SDS011;4010;42.698;23.124;2024-03-07T09:19:10;8.93;;;7.57;;
7929;SDS011;4010;42.698;23.124;2024-03-07T09:21:39;9.33;;;8.13;;
7929;SDS011;4010;42.698;23.124;2024-03-07T09:24:06;9.00;;;7.30;;
7929;SDS011;4010;42.698;23.124;2024-03-07T09:26:33;10.77;;;7.33;;
7929;SDS011;4010;42.698;23.124;2024-03-07T09:29:00;9.60;;;8.00;;
7929;SDS011;4010;42.698;23.124;2024-03-07T09:31:32;9.53;;;7.90;;
7929;SDS011;4010;42.698;23.124;2024-03-07T09:33:59;7.40;;;6.20;;
7929;SDS011;4010;42.698;23.124;2024-03-07T09:36:27;9.07;;;6.03;;
7929;SDS011;4010;42.698;23.124;2024-03-07T09:38:55;6.60;;;5.90;;
7929;SDS011;4010;42.698;23.124;2024-03-07T09:41:22;6.60;;;5.73;;
7929;SDS011;4010;42.698;23.124;2024-03-07T09:43:51;6.93;;;6.07;;
7929;SDS011;4010;42.698;23.124;2024-03-07T09:46:20;7.13;;;5.70;;
7929;SDS011;4010;42.698;23.124;2024-03-07T09:48:50;8.13;;;6.47;;
7929;SDS011;4010;42.698;23.124;2024-03-07T09:51:18;8.00;;;5.87;;
7929;SDS011;4010;42.698;23.124;2024-03-07T09:53:47;7.20;;;6.33;;
7929;SDS011;4010;42.698;23.124;2024-03-07T09:56:16;7.83;;;7.03;;
7929;SDS011;4010;42.698;23.124;2024-03-07T09:58:46;9.27;;;6.63;;
7929;SDS011;4010;42.698;23.124;2024-03-07T10:01:15;7.97;;;6.23;;
7929;SDS011;4010;42.698;23.124;2024-03-07T10:03:46;7.50;;;6.70;;
7929;SDS011;4010;42.698;23.124;2024-03-07T10:06:15;7.20;;;6.50;;
7929;SDS011;4010;42.698;23.124;2024-03-07T10:08:42;6.53;;;5.83;;
7929;SDS011;4010;42.698;23.124;2024-03-07T10:11:10;6.27;;;5.67;;
7929;SDS011;4010;42.698;23.124;2024-03-07T10:13:37;5.93;;;5.17;;
7929;SDS011;4010;42.698;23.124;2024-03-07T10:16:04;7.53;;;6.30;;
7929;SDS011;4010;42.698;23.124;2024-03-07T10:18:31;8.37;;;5.77;;
7929;SDS011;4010;42.698;23.124;2024-03-07T10:20:58;6.67;;;5.93;;
7929;SDS011;4010;42.698;23.124;2024-03-07T10:23:27;7.77;;;6.97;;
7929;SDS011;4010;42.698;23.124;2024-03-07T10:25:54;6.13;;;5.43;;
7929;SDS011;4010;42.698;23.124;2024-03-07T10:28:22;5.17;;;4.67;;
7929;SDS011;4010;42.698;23.124;2024-03-07T10:30:49;6.07;;;5.37;;
7929;SDS011;4010;42.698;23.124;2024-03-07T10:33:17;6.70;;;6.00;;
7929;SDS011;4010;42.698;23.124;2024-03-07T10:35:46;10.70;;;8.20;;
7929;SDS011;4010;42.698;23.124;2024-03-07T10:38:14;12.70;;;8.60;;
7929;SDS011;4010;42.698;23.124;2024-03-07T10:40:45;6.63;;;5.17;;
7929;SDS011;4010;42.698;23.124;2024-03-07T10:43:14;6.13;;;5.03;;
7929;SDS011;4010;42.698;23.124;2024-03-07T10:45:45;7.43;;;4.90;;
7929;SDS011;4010;42.698;23.124;2024-03-07T10:48:13;5.20;;;4.73;;
7929;SDS011;4010;42.698;23.124;2024-03-07T10:50:43;5.50;;;5.00;;
7929;SDS011;4010;42.698;23.124;2024-03-07T10:53:20;5.10;;;4.60;;
7929;SDS011;4010;42.698;23.124;2024-03-07T10:56:02;6.28;;;5.65;;
7929;SDS011;4010;42.698;23.124;2024-03-07T10:58:50;6.27;;;5.07;;
7929;SDS011;4010;42.698;23.124;2024-03-07T11:01:24;4.97;;;4.47;;
7929;SDS011;4010;42.698;23.124;2024-03-07T11:03:53;4.73;;;4.27;;
7929;SDS011;4010;42.698;23.124;2024-03-07T11:06:22;5.43;;;4.57;;
7929;SDS011;4010;42.698;23.124;2024-03-07T11:08:49;5.10;;;4.60;;
7929;SDS011;4010;42.698;23.124;2024-03-07T11:11:19;4.73;;;4.33;;
7929;SDS011;4010;42.698;23.124;2024-03-07T11:13:48;4.83;;;4.00;;
7929;SDS011;4010;42.698;23.124;2024-03-07T11:16:15;4.00;;;3.57;;
7929;SDS011;4010;42.698;23.124;2024-03-07T11:22:01;4.30;;;3.90;;
7929;SDS011;4010;42.698;23.124;2024-03-07T11:24:39;5.30;;;4.80;;
7929;SDS011;4010;42.698;23.124;2024-03-07T11:27:09;6.63;;;4.67;;
7929;SDS011;4010;42.698;23.124;2024-03-07T11:29:39;5.17;;;4.67;;
7929;SDS011;4010;42.698;23.124;2024-03-07T11:32:08;5.30;;;4.80;;
7929;SDS011;4010;42.698;23.124;2024-03-07T11:34:37;5.83;;;4.70;;
7929;SDS011;4010;42.698;23.124;2024-03-07T11:37:06;5.73;;;4.80;;
7929;SDS011;4010;42.698;23.124;2024-03-07T11:39:42;4.73;;;4.33;;
7929;SDS011;4010;42.698;23.124;2024-03-07T11:42:23;5.60;;;5.00;;
7929;SDS011;4010;42.698;23.124;2024-03-07T11:44:51;5.60;;;4.77;;
7929;SDS011;4010;42.698;23.124;2024-03-07T11:47:21;4.97;;;4.47;;
7929;SDS011;4010;42.698;23.124;2024-03-07T11:49:49;5.67;;;4.77;;
7929;SDS011;4010;42.698;23.124;2024-03-07T11:52:17;7.10;;;5.13;;
7929;SDS011;4010;42.698;23.124;2024-03-07T11:54:44;4.93;;;4.37;;
7929;SDS011;4010;42.698;23.124;2024-03-07T11:57:15;6.30;;;5.00;;
7929;SDS011;4010;42.698;23.124;2024-03-07T11:59:46;5.07;;;4.60;;
7929;SDS011;4010;42.698;23.124;2024-03-07T12:02:17;6.03;;;4.60;;
7929;SDS011;4010;42.698;23.124;2024-03-07T12:04:46;5.23;;;4.73;;
7929;SDS011;4010;42.698;23.124;2024-03-07T12:07:13;4.97;;;4.40;;
7929;SDS011;4010;42.698;23.124;2024-03-07T12:09:42;5.70;;;4.30;;
7929;SDS011;4010;42.698;23.124;2024-03-07T12:12:13;5.97;;;4.50;;
7929;SDS011;4010;42.698;23.124;2024-03-07T12:14:42;6.53;;;4.63;;
7929;SDS011;4010;42.698;23.124;2024-03-07T12:17:10;5.30;;;4.50;;
7929;SDS011;4010;42.698;23.124;2024-03-07T12:19:37;4.83;;;4.40;;
7929;SDS011;4010;42.698;23.124;2024-03-07T12:22:07;7.83;;;4.20;;
7929;SDS011;4010;42.698;23.124;2024-03-07T12:24:37;4.37;;;3.40;;
7929;SDS011;4010;42.698;23.124;2024-03-07T12:27:05;5.47;;;3.60;;
7929;SDS011;4010;42.698;23.124;2024-03-07T12:29:35;4.23;;;3.83;;
7929;SDS011;4010;42.698;23.124;2024-03-07T12:32:02;23.17;;;10.60;;
7929;SDS011;4010;42.698;23.124;2024-03-07T12:34:32;13.27;;;5.10;;
7929;SDS011;4010;42.698;23.124;2024-03-07T12:37:02;6.60;;;2.97;;
7929;SDS011;4010;42.698;23.124;2024-03-07T12:39:31;3.70;;;1.80;;
7929;SDS011;4010;42.698;23.124;2024-03-07T12:42:00;10.87;;;3.10;;
7929;SDS011;4010;42.698;23.124;2024-03-07T12:44:38;24.27;;;7.80;;
7929;SDS011;4010;42.698;23.124;2024-03-07T12:47:08;29.73;;;8.63;;
7929;SDS011;4010;42.698;23.124;2024-03-07T12:49:37;15.63;;;5.83;;
7929;SDS011;4010;42.698;23.124;2024-03-07T12:52:05;15.70;;;6.03;;
7929;SDS011;4010;42.698;23.124;2024-03-07T12:54:34;4.17;;;2.00;;
7929;SDS011;4010;42.698;23.124;2024-03-07T12:57:02;6.20;;;2.53;;
7929;SDS011;4010;42.698;23.124;2024-03-07T12:59:31;5.07;;;1.50;;
7929;SDS011;4010;42.698;23.124;2024-03-07T13:01:58;2.93;;;1.90;;
7929;SDS011;4010;42.698;23.124;2024-03-07T13:22:45;1.77;;;1.10;;
7929;SDS011;4010;42.698;23.124;2024-03-07T13:25:13;1.73;;;1.00;;
7929;SDS011;4010;42.698;23.124;2024-03-07T13:27:50;1.03;;;0.87;;
7929;SDS011;4010;42.698;23.124;2024-03-07T13:30:21;1.20;;;1.10;;
7929;SDS011;4010;42.698;23.124;2024-03-07T13:32:53;6.63;;;4.47;;
7929;SDS011;4010;42.698;23.124;2024-03-07T13:35:21;12.43;;;7.67;;
7929;SDS011;4010;42.698;23.124;2024-03-07T13:37:49;6.27;;;4.13;;
7929;SDS011;4010;42.698;23.124;2024-03-07T13:40:17;4.07;;;2.47;;
7929;SDS011;4010;42.698;23.124;2024-03-07T13:42:52;2.60;;;1.60;;
7929;SDS011;4010;42.698;23.124;2024-03-07T13:45:21;1.17;;;0.97;;
7929;SDS011;4010;42.698;23.124;2024-03-07T13:47:49;1.37;;;1.20;;
7929;SDS011;4010;42.698;23.124;2024-03-07T13:50:18;0.83;;;0.83;;
7929;SDS011;4010;42.698;23.124;2024-03-07T13:52:47;1.27;;;1.17;;
7929;SDS011;4010;42.698;23.124;2024-03-07T13:55:33;2.60;;;1.10;;
7929;SDS011;4010;42.698;23.124;2024-03-07T13:58:18;1.07;;;0.93;;
7929;SDS011;4010;42.698;23.124;2024-03-07T14:00:59;1.33;;;1.23;;
7929;SDS011;4010;42.698;23.124;2024-03-07T14:06:48;1.40;;;1.20;;
7929;SDS011;4010;42.698;23.124;2024-03-07T14:09:38;1.90;;;1.47;;
7929;SDS011;4010;42.698;23.124;2024-03-07T14:12:20;2.53;;;1.77;;
7929;SDS011;4010;42.698;23.124;2024-03-07T14:18:35;2.20;;;1.90;;
7929;SDS011;4010;42.698;23.124;2024-03-07T14:21:50;4.33;;;2.00;;
7929;SDS011;4010;42.698;23.124;2024-03-07T14:27:33;3.33;;;2.30;;
7929;SDS011;4010;42.698;23.124;2024-03-07T14:30:13;2.63;;;2.20;;
7929;SDS011;4010;42.698;23.124;2024-03-07T14:32:48;2.70;;;2.20;;
7929;SDS011;4010;42.698;23.124;2024-03-07T14:35:18;2.90;;;2.20;;
7929;SDS011;4010;42.698;23.124;2024-03-07T14:37:52;3.37;;;2.40;;
7929;SDS011;4010;42.698;23.124;2024-03-07T14:40:22;2.73;;;2.53;;
7929;SDS011;4010;42.698;23.124;2024-03-07T14:42:52;2.87;;;2.40;;
7929;SDS011;4010;42.698;23.124;2024-03-07T14:45:23;3.60;;;3.30;;
7929;SDS011;4010;42.698;23.124;2024-03-07T14:47:55;4.07;;;3.00;;
7929;SDS011;4010;42.698;23.124;2024-03-07T14:50:22;5.57;;;3.53;;
7929;SDS011;4010;42.698;23.124;2024-03-07T14:52:51;3.50;;;3.20;;
7929;SDS011;4010;42.698;23.124;2024-03-07T14:55:18;3.63;;;3.03;;
7929;SDS011;4010;42.698;23.124;2024-03-07T14:57:45;4.33;;;3.30;;
7929;SDS011;4010;42.698;23.124;2024-03-07T15:00:14;5.03;;;4.07;;
7929;SDS011;4010;42.698;23.124;2024-03-07T15:02:44;5.87;;;4.10;;
7929;SDS011;4010;42.698;23.124;2024-03-07T15:05:12;5.70;;;4.40;;
7929;SDS011;4010;42.698;23.124;2024-03-07T15:07:40;7.07;;;4.67;;
7929;SDS011;4010;42.698;23.124;2024-03-07T15:12:43;27.17;;;15.57;;
7929;SDS011;4010;42.698;23.124;2024-03-07T15:15:12;14.53;;;10.57;;
7929;SDS011;4010;42.698;23.124;2024-03-07T15:17:40;8.87;;;7.23;;
7929;SDS011;4010;42.698;23.124;2024-03-07T15:20:07;7.47;;;5.50;;
7929;SDS011;4010;42.698;23.124;2024-03-07T15:22:40;7.27;;;5.23;;
7929;SDS011;4010;42.698;23.124;2024-03-07T15:25:11;8.47;;;4.90;;
7929;SDS011;4010;42.698;23.124;2024-03-07T15:27:39;5.67;;;4.63;;
7929;SDS011;4010;42.698;23.124;2024-03-07T15:30:06;10.83;;;5.80;;
7929;SDS011;4010;42.698;23.124;2024-03-07T15:32:40;9.13;;;5.60;;
7929;SDS011;4010;42.698;23.124;2024-03-07T15:35:08;6.53;;;5.27;;
7929;SDS011;4010;42.698;23.124;2024-03-07T15:37:38;5.93;;;4.90;;
7929;SDS011;4010;42.698;23.124;2024-03-07T15:40:06;6.93;;;5.57;;